createdAt,value
2018-04-01T15:55:18.745Z,1006.24
2018-04-01T15:57:20.324Z,1006.21
2018-04-01T15:59:21.745Z,1006.24
2018-04-01T16:01:23.210Z,1006.21
2018-04-01T16:03:25.504Z,1006.22
2018-04-01T16:05:29.397Z,1006.26
2018-04-01T16:07:30.880Z,1006.27
2018-04-01T16:09:32.478Z,1006.27
2018-04-01T16:11:34.631Z,1006.23
2018-04-01T16:13:36.654Z,1006.18
2018-04-01T16:15:38.544Z,1006.30
2018-04-01T16:17:40.166Z,1006.38
2018-04-01T16:19:41.953Z,1006.40
2018-04-01T16:21:43.628Z,1006.35
2018-04-01T16:23:45.359Z,1006.35
2018-04-01T16:25:47.075Z,1006.35
2018-04-01T16:27:48.785Z,1006.37
2018-04-01T16:29:50.485Z,1006.36
2018-04-01T16:31:52.503Z,1006.36
2018-04-01T16:33:54.221Z,1006.35
2018-04-01T16:35:56.031Z,1006.37
2018-04-01T16:37:57.980Z,1006.39
2018-04-01T16:39:59.746Z,1006.38
2018-04-01T16:42:01.352Z,1006.43
2018-04-01T16:44:03.031Z,1006.43
2018-04-01T16:46:04.863Z,1006.49
2018-04-01T16:48:06.631Z,1006.54
2018-04-01T16:50:08.250Z,1006.57
2018-04-01T16:52:10.014Z,1006.61
2018-04-01T16:54:11.749Z,1006.65
2018-04-01T16:56:13.430Z,1006.68
2018-04-01T16:58:15.114Z,1006.75
2018-04-01T17:00:16.811Z,1006.78
2018-04-01T17:02:18.959Z,1006.81
2018-04-01T17:04:20.550Z,1006.85
2018-04-01T17:06:22.146Z,1006.86
2018-04-01T17:08:24.212Z,1006.87
2018-04-01T17:10:25.864Z,1006.87
2018-04-01T17:12:28.076Z,1006.91
2018-04-01T17:14:29.833Z,1007.01
2018-04-01T17:16:31.494Z,1007.04
2018-04-01T17:18:33.131Z,1007.09
2018-04-01T17:20:34.782Z,1007.10
2018-04-01T17:22:36.425Z,1007.12
2018-04-01T17:24:38.176Z,1007.11
2018-04-01T17:26:39.855Z,1007.07
2018-04-01T17:28:41.763Z,1007.12
2018-04-01T17:30:43.509Z,1007.12
2018-04-01T17:32:45.140Z,1007.19
2018-04-01T17:34:47.064Z,1007.13
2018-04-01T17:36:48.668Z,1007.10
2018-04-01T17:38:50.497Z,1007.12
2018-04-01T17:40:52.245Z,1007.08
2018-04-01T17:42:54.049Z,1007.17
2018-04-01T17:44:55.815Z,1007.15
2018-04-01T17:46:57.415Z,1007.17
2018-04-01T17:48:59.360Z,1007.16
2018-04-01T17:51:00.980Z,1007.12
2018-04-01T17:53:02.635Z,1007.16
2018-04-01T17:55:04.705Z,1007.09
2018-04-01T17:57:06.667Z,1007.16
2018-04-01T17:59:08.302Z,1007.18
2018-04-01T18:01:10.170Z,1007.23
2018-04-01T18:03:11.981Z,1007.24
2018-04-01T18:05:13.681Z,1007.32
2018-04-01T18:07:15.420Z,1007.38
2018-04-01T18:09:17.096Z,1007.39
2018-04-01T18:11:18.950Z,1007.42
2018-04-01T18:13:20.919Z,1007.42
2018-04-01T18:15:22.622Z,1007.46
2018-04-01T18:17:24.236Z,1007.44
2018-04-01T18:19:25.956Z,1007.47
2018-04-01T18:21:27.606Z,1007.50
2018-04-01T18:23:29.269Z,1007.50
2018-04-01T18:25:30.912Z,1007.52
2018-04-01T18:27:32.689Z,1007.46
2018-04-01T18:29:34.454Z,1007.48
2018-04-01T18:31:36.149Z,1007.49
2018-04-01T18:33:37.986Z,1007.52
2018-04-01T18:35:39.984Z,1007.53
2018-04-01T18:37:43.127Z,1007.52
2018-04-01T18:39:45.139Z,1007.49
2018-04-01T18:41:46.944Z,1007.44
2018-04-01T18:43:48.707Z,1007.41
2018-04-01T18:45:50.417Z,1007.49
2018-04-01T18:47:53.339Z,1007.48
2018-04-01T18:49:55.041Z,1007.50
2018-04-01T18:51:56.681Z,1007.49
2018-04-01T18:53:58.430Z,1007.51
2018-04-01T18:56:00.033Z,1007.52
2018-04-01T18:58:01.994Z,1007.59
2018-04-01T19:00:03.745Z,1007.63
2018-04-01T19:02:05.502Z,1007.66
2018-04-01T19:04:07.184Z,1007.70
2018-04-01T19:06:09.022Z,1007.70
2018-04-01T19:08:10.658Z,1007.73
2018-04-01T19:10:12.446Z,1007.77
2018-04-01T19:12:14.072Z,1007.79
2018-04-01T19:14:15.850Z,1007.78
2018-04-01T19:16:17.740Z,1007.84
2018-04-01T19:18:19.493Z,1007.86
2018-04-01T19:20:21.561Z,1007.88
2018-04-01T19:22:23.808Z,1007.92
2018-04-01T19:24:26.715Z,1007.90
2018-04-01T19:26:28.382Z,1007.89
2018-04-01T19:28:31.028Z,1007.90
2018-04-01T19:30:32.954Z,1007.92
2018-04-01T19:32:34.627Z,1007.92
2018-04-01T19:34:36.449Z,1007.92
2018-04-01T19:36:38.060Z,1007.91
2018-04-01T19:38:39.917Z,1007.94
2018-04-01T19:40:41.692Z,1007.96
2018-04-01T19:42:43.547Z,1007.99
2018-04-01T19:44:45.466Z,1007.96
2018-04-01T19:46:47.255Z,1007.96
2018-04-01T19:48:49.333Z,1007.94
2018-04-01T19:50:51.256Z,1007.96
2018-04-01T19:52:53.575Z,1008.01
2018-04-01T19:54:55.198Z,1008.00
2018-04-01T19:56:56.857Z,1008.05
2018-04-01T19:58:58.800Z,1008.07
2018-04-01T20:01:00.684Z,1008.09
2018-04-01T20:03:02.280Z,1008.04
2018-04-01T20:05:04.373Z,1008.06
2018-04-01T20:07:06.638Z,1008.07
2018-04-01T20:09:09.165Z,1008.08
2018-04-01T20:11:10.970Z,1008.07
2018-04-01T20:13:12.647Z,1008.08
2018-04-01T20:15:15.780Z,1008.12
2018-04-01T20:17:18.942Z,1008.12
2018-04-01T20:19:20.782Z,1008.12
2018-04-01T20:21:22.784Z,1008.17
2018-04-01T20:23:24.764Z,1008.13
2018-04-01T20:25:26.546Z,1008.14
2018-04-01T20:27:28.370Z,1008.13
2018-04-01T20:29:30.262Z,1008.12
2018-04-01T20:31:32.081Z,1008.12
2018-04-01T20:33:33.900Z,1008.15
2018-04-01T20:35:35.747Z,1008.14
2018-04-01T20:37:38.732Z,1008.12
2018-04-01T20:39:41.547Z,1008.17
2018-04-01T20:41:43.273Z,1008.12
2018-04-01T20:43:45.208Z,1008.11
2018-04-01T20:45:47.115Z,1008.16
2018-04-01T20:47:48.860Z,1008.15
2018-04-01T20:49:50.623Z,1008.14
2018-04-01T20:51:52.424Z,1008.16
2018-04-01T20:53:54.272Z,1008.16
2018-04-01T20:55:56.790Z,1008.18
2018-04-01T20:57:59.496Z,1008.16
2018-04-01T21:00:01.270Z,1008.15
2018-04-01T21:02:03.324Z,1008.13
2018-04-01T21:04:05.200Z,1008.11
2018-04-01T21:06:06.881Z,1008.14
2018-04-01T21:08:08.670Z,1008.17
2018-04-01T21:10:11.503Z,1008.17
2018-04-01T21:12:13.864Z,1008.20
2018-04-01T21:14:16.497Z,1008.24
2018-04-01T21:16:19.396Z,1008.24
2018-04-01T21:18:21.080Z,1008.33
2018-04-01T21:20:22.885Z,1008.33
2018-04-01T21:22:24.582Z,1008.34
2018-04-01T21:24:26.450Z,1008.30
2018-04-01T21:26:28.191Z,1008.28
2018-04-01T21:28:30.699Z,1008.27
2018-04-01T21:30:32.516Z,1008.30
2018-04-01T21:32:35.124Z,1008.36
2018-04-01T21:34:36.776Z,1008.33
2018-04-01T21:36:38.634Z,1008.34
2018-04-01T21:38:40.467Z,1008.32
2018-04-01T21:40:42.227Z,1008.38
2018-04-01T21:42:43.982Z,1008.38
2018-04-01T21:44:45.813Z,1008.37
2018-04-01T21:46:47.639Z,1008.38
2018-04-01T21:48:50.477Z,1008.39
2018-04-01T21:50:52.306Z,1008.35
2018-04-01T21:52:54.216Z,1008.42
2018-04-01T21:54:56.917Z,1008.42
2018-04-01T21:56:59.671Z,1008.41
2018-04-01T21:59:02.417Z,1008.44
2018-04-01T22:01:05.304Z,1008.37
2018-04-01T22:03:06.965Z,1008.36
2018-04-01T22:05:08.796Z,1008.37
2018-04-01T22:07:10.579Z,1008.40
2018-04-01T22:09:12.337Z,1008.40
2018-04-01T22:11:15.764Z,1008.36
2018-04-01T22:13:18.318Z,1008.35
2018-04-01T22:15:20.023Z,1008.38
2018-04-01T22:17:21.866Z,1008.40
2018-04-01T22:19:23.703Z,1008.38
2018-04-01T22:21:25.387Z,1008.42
2018-04-01T22:23:27.127Z,1008.38
2018-04-01T22:25:28.843Z,1008.39
2018-04-01T22:27:30.676Z,1008.40
2018-04-01T22:29:32.482Z,1008.43
2018-04-01T22:31:34.304Z,1008.44
2018-04-01T22:33:38.262Z,1008.44
2018-04-01T22:35:40.178Z,1008.45
2018-04-01T22:38:22.785Z,1008.45
2018-04-01T22:40:24.298Z,1008.46
2018-04-01T22:42:25.744Z,1008.49
2018-04-01T22:44:27.252Z,1008.50
2018-04-01T22:46:28.837Z,1008.45
2018-04-01T22:48:30.513Z,1008.40
2018-04-01T22:50:32.901Z,1008.41
2018-04-01T22:52:34.612Z,1008.37
2018-04-01T22:54:36.366Z,1008.35
2018-04-01T22:56:38.904Z,1008.34
2018-04-01T22:58:40.591Z,1008.32
2018-04-01T23:00:43.120Z,1008.32
2018-04-01T23:02:45.715Z,1008.36
2018-04-01T23:04:47.505Z,1008.33
2018-04-01T23:06:49.974Z,1008.34
2018-04-01T23:08:51.692Z,1008.32
2018-04-01T23:10:53.422Z,1008.35
2018-04-01T23:12:55.857Z,1008.36
2018-04-01T23:14:57.484Z,1008.32
2018-04-01T23:16:59.197Z,1008.33
2018-04-01T23:19:00.992Z,1008.36
2018-04-01T23:21:03.219Z,1008.35
2018-04-01T23:23:05.297Z,1008.34
2018-04-01T23:25:07.127Z,1008.30
2018-04-01T23:27:09.679Z,1008.34
2018-04-01T23:29:11.294Z,1008.32
2018-04-01T23:31:13.161Z,1008.32
2018-04-01T23:33:14.914Z,1008.28
2018-04-01T23:35:16.686Z,1008.27
2018-04-01T23:37:19.131Z,1008.29
2018-04-01T23:39:20.938Z,1008.27
2018-04-01T23:41:22.742Z,1008.25
2018-04-01T23:43:24.508Z,1008.25
2018-04-01T23:45:26.155Z,1008.28
2018-04-01T23:47:28.569Z,1008.32
2018-04-01T23:49:30.328Z,1008.34
2018-04-01T23:51:32.513Z,1008.29
2018-04-01T23:53:34.833Z,1008.33
2018-04-01T23:55:36.566Z,1008.32
2018-04-01T23:57:38.233Z,1008.32
2018-04-01T23:59:40.110Z,1008.33
